createdAt,value
2022-12-05T00:02:23.741Z,5.40
2022-12-05T00:04:50.282Z,5.30
2022-12-05T00:07:16.905Z,5.30
2022-12-05T00:09:43.450Z,5.30
2022-12-05T00:12:09.965Z,5.30
2022-12-05T00:14:36.542Z,5.30
2022-12-05T00:17:03.262Z,5.30
2022-12-05T00:19:29.912Z,5.30
2022-12-05T00:21:57.662Z,5.30
2022-12-05T00:24:24.232Z,5.40
2022-12-05T00:26:50.750Z,5.30
2022-12-05T00:29:17.283Z,5.40
2022-12-05T00:31:44.068Z,5.30
2022-12-05T00:34:10.673Z,5.20
2022-12-05T00:36:37.400Z,5.10
2022-12-05T00:39:05.918Z,5.20
2022-12-05T00:41:32.557Z,5.10
2022-12-05T00:44:00.800Z,5.00
2022-12-05T00:46:29.307Z,5.00
2022-12-05T00:48:56.928Z,4.90
2022-12-05T00:51:28.317Z,4.90
2022-12-05T00:53:55.738Z,4.80
2022-12-05T00:56:23.308Z,4.70
2022-12-05T00:58:50.983Z,4.70
2022-12-05T01:01:19.479Z,4.60
2022-12-05T01:03:47.013Z,4.60
2022-12-05T01:06:14.432Z,4.60
2022-12-05T01:08:41.570Z,4.50
2022-12-05T01:11:08.939Z,4.50
2022-12-05T01:13:35.922Z,4.50
2022-12-05T01:16:02.949Z,4.40
2022-12-05T01:18:29.726Z,4.40
2022-12-05T01:20:56.448Z,4.40
2022-12-05T01:23:23.511Z,4.40
2022-12-05T01:25:51.153Z,4.40
2022-12-05T01:28:17.879Z,4.50
2022-12-05T01:30:46.720Z,4.40
2022-12-05T01:33:13.344Z,4.40
2022-12-05T01:35:40.808Z,4.40
2022-12-05T01:38:07.597Z,4.40
2022-12-05T01:40:36.039Z,4.30
2022-12-05T01:43:03.430Z,4.30
2022-12-05T01:45:35.411Z,4.30
2022-12-05T01:48:03.676Z,4.30
2022-12-05T01:50:30.304Z,4.30
2022-12-05T01:52:56.839Z,4.30
2022-12-05T01:55:23.453Z,4.30
2022-12-05T01:57:50.063Z,4.20
2022-12-05T02:00:17.927Z,4.20
2022-12-05T02:02:49.034Z,4.20
2022-12-05T02:05:20.901Z,4.20
2022-12-05T02:07:47.682Z,4.20
2022-12-05T02:10:14.405Z,4.20
2022-12-05T02:12:42.581Z,4.20
2022-12-05T02:15:18.326Z,4.10
2022-12-05T02:17:44.856Z,4.10
2022-12-05T02:20:16.057Z,4.00
2022-12-05T02:22:42.578Z,4.10
2022-12-05T02:25:27.942Z,4.10
2022-12-05T02:28:09.563Z,4.10
2022-12-05T02:30:40.521Z,4.10
2022-12-05T02:33:10.454Z,4.10
2022-12-05T02:35:49.010Z,4.10
2022-12-05T02:38:15.678Z,4.00
2022-12-05T02:40:54.540Z,4.00
2022-12-05T02:43:25.001Z,4.00
2022-12-05T02:45:53.969Z,3.90
2022-12-05T02:48:20.842Z,3.80
2022-12-05T02:50:48.816Z,3.90
2022-12-05T02:53:16.746Z,3.90
2022-12-05T02:55:44.057Z,3.90
2022-12-05T02:58:23.151Z,3.90
2022-12-05T03:00:50.584Z,3.90
2022-12-05T03:03:19.277Z,3.90
2022-12-05T03:05:56.797Z,3.80
2022-12-05T03:08:25.088Z,3.80
2022-12-05T03:10:52.923Z,3.80
2022-12-05T03:13:23.372Z,3.70
2022-12-05T03:15:52.981Z,3.80
2022-12-05T03:18:25.039Z,3.80
2022-12-05T03:21:00.078Z,3.80
2022-12-05T03:23:30.712Z,3.90
2022-12-05T03:26:00.278Z,3.90
2022-12-05T03:28:33.088Z,3.90
2022-12-05T03:31:02.064Z,3.90
2022-12-05T03:33:31.938Z,3.90
2022-12-05T03:36:01.974Z,3.80
2022-12-05T03:38:47.408Z,3.80
2022-12-05T03:41:24.796Z,3.80
2022-12-05T03:43:54.448Z,3.70
2022-12-05T03:46:21.090Z,3.70
2022-12-05T03:48:53.065Z,3.70
2022-12-05T03:51:20.485Z,3.80
2022-12-05T03:53:50.636Z,3.70
2022-12-05T03:56:23.617Z,3.80
2022-12-05T03:58:53.995Z,3.80
2022-12-05T04:01:21.966Z,3.80
2022-12-05T04:03:51.802Z,3.80
2022-12-05T04:06:24.111Z,3.80
2022-12-05T04:08:52.725Z,3.80
2022-12-05T04:11:20.820Z,3.80
2022-12-05T04:13:52.892Z,3.70
2022-12-05T04:16:40.746Z,3.60
2022-12-05T04:19:11.721Z,3.60
2022-12-05T04:21:41.283Z,3.60
2022-12-05T04:24:31.515Z,3.60
2022-12-05T04:27:21.444Z,3.60
2022-12-05T04:29:53.209Z,3.50
2022-12-05T04:32:21.016Z,3.60
2022-12-05T04:34:50.268Z,3.50
2022-12-05T04:37:19.935Z,3.50
2022-12-05T04:39:52.891Z,3.50
2022-12-05T04:42:21.692Z,3.50
2022-12-05T04:44:53.840Z,3.50
2022-12-05T04:47:22.687Z,3.50
2022-12-05T04:49:53.703Z,3.50
2022-12-05T04:52:21.817Z,3.50
2022-12-05T04:54:51.277Z,3.50
2022-12-05T04:57:22.071Z,3.50
2022-12-05T04:59:48.890Z,3.60
2022-12-05T05:02:17.773Z,3.60
2022-12-05T05:04:46.838Z,3.60
2022-12-05T05:07:14.808Z,3.50
2022-12-05T05:09:41.620Z,3.60
2022-12-05T05:12:08.357Z,3.50
2022-12-05T05:14:35.027Z,3.60
2022-12-05T05:17:01.667Z,3.50
2022-12-05T05:19:28.301Z,3.50
2022-12-05T05:21:54.861Z,3.40
2022-12-05T05:24:23.096Z,3.50
2022-12-05T05:26:55.551Z,3.40
2022-12-05T05:29:23.718Z,3.40
2022-12-05T05:31:50.321Z,3.50
2022-12-05T05:34:16.993Z,3.50
2022-12-05T05:36:43.993Z,3.50
2022-12-05T05:39:15.202Z,3.50
2022-12-05T05:41:42.696Z,3.50
2022-12-05T05:44:09.374Z,3.50
2022-12-05T05:46:36.527Z,3.50
2022-12-05T05:49:03.334Z,3.50
2022-12-05T05:51:30.294Z,3.50
2022-12-05T05:53:57.854Z,3.50
2022-12-05T05:56:24.458Z,3.50
2022-12-05T05:58:59.755Z,3.50
2022-12-05T06:01:26.434Z,3.40
2022-12-05T06:03:53.195Z,3.40
2022-12-05T06:06:20.559Z,3.40
2022-12-05T06:08:47.238Z,3.30
2022-12-05T06:11:18.961Z,3.30
2022-12-05T06:13:51.986Z,3.30
2022-12-05T06:16:21.118Z,3.40
2022-12-05T06:18:48.000Z,3.40
2022-12-05T06:21:16.375Z,3.50
2022-12-05T06:23:43.562Z,3.50
2022-12-05T06:26:11.590Z,3.50
2022-12-05T06:28:39.387Z,3.50
2022-12-05T06:31:16.459Z,3.50
2022-12-05T06:33:43.755Z,3.50
2022-12-05T06:36:11.647Z,3.70
2022-12-05T06:38:42.088Z,3.70
2022-12-05T06:41:14.942Z,3.60
2022-12-05T06:43:42.021Z,3.60
2022-12-05T06:46:10.044Z,3.60
2022-12-05T06:48:36.711Z,3.60
2022-12-05T06:51:03.531Z,3.70
2022-12-05T06:53:30.077Z,3.70
2022-12-05T06:55:56.677Z,3.70
2022-12-05T06:58:23.241Z,3.60
2022-12-05T07:01:08.767Z,3.60
2022-12-05T07:03:35.486Z,3.60
2022-12-05T07:06:02.872Z,3.60
2022-12-05T07:08:29.691Z,3.70
2022-12-05T07:10:56.237Z,3.60
2022-12-05T07:13:22.955Z,3.70
2022-12-05T07:15:49.982Z,3.60
2022-12-05T07:18:17.123Z,3.60
2022-12-05T07:21:10.592Z,3.70
2022-12-05T07:23:30.682Z,3.70
2022-12-05T07:25:57.763Z,3.70
2022-12-05T07:28:24.716Z,3.70
2022-12-05T07:31:04.309Z,3.70
2022-12-05T07:33:30.846Z,3.80
2022-12-05T07:36:01.131Z,3.70
2022-12-05T07:38:27.903Z,3.80
2022-12-05T07:40:54.694Z,3.80
2022-12-05T07:43:21.278Z,3.90
2022-12-05T07:45:47.843Z,3.90
2022-12-05T07:48:18.352Z,3.90
2022-12-05T07:50:45.395Z,3.90
2022-12-05T07:53:11.944Z,4.00
2022-12-05T07:55:39.206Z,4.00
2022-12-05T07:58:05.870Z,4.00
2022-12-05T08:00:32.593Z,4.10
2022-12-05T08:02:59.280Z,4.00
2022-12-05T08:05:25.862Z,4.00
2022-12-05T08:07:52.472Z,4.20
2022-12-05T08:10:19.095Z,4.20
2022-12-05T08:12:45.639Z,4.10
2022-12-05T08:15:12.499Z,4.10
2022-12-05T08:17:39.054Z,4.10
2022-12-05T08:20:05.955Z,4.10
2022-12-05T08:22:32.539Z,4.20
2022-12-05T08:24:59.135Z,4.20
2022-12-05T08:27:25.692Z,4.20
2022-12-05T08:29:54.011Z,4.20
2022-12-05T08:32:20.548Z,4.30
2022-12-05T08:34:47.256Z,4.30
2022-12-05T08:37:13.896Z,4.30
2022-12-05T08:39:40.463Z,4.40
2022-12-05T08:42:07.091Z,4.40
2022-12-05T08:44:33.616Z,4.40
2022-12-05T08:47:00.167Z,4.50
2022-12-05T08:49:26.823Z,4.50
2022-12-05T08:51:53.518Z,4.60
2022-12-05T08:54:20.053Z,4.70
2022-12-05T08:56:46.655Z,4.70
2022-12-05T08:59:13.220Z,4.80
2022-12-05T09:01:40.429Z,4.70
2022-12-05T09:04:07.229Z,4.70
2022-12-05T09:06:34.426Z,4.70
2022-12-05T09:09:04.796Z,4.70
2022-12-05T09:11:32.852Z,4.70
2022-12-05T09:14:00.172Z,4.80
2022-12-05T09:16:37.034Z,4.80
2022-12-05T09:19:05.471Z,4.80
2022-12-05T09:21:32.050Z,4.80
2022-12-05T09:23:59.451Z,4.80
2022-12-05T09:26:26.539Z,5.00
2022-12-05T09:28:53.267Z,5.00
2022-12-05T09:31:21.599Z,5.00
2022-12-05T09:33:48.741Z,5.00
2022-12-05T09:36:17.088Z,5.00
2022-12-05T09:38:44.013Z,5.00
2022-12-05T09:41:45.583Z,5.10
2022-12-05T09:44:24.865Z,5.10
2022-12-05T09:47:07.951Z,4.90
2022-12-05T09:49:36.920Z,5.10
2022-12-05T09:52:04.023Z,5.00
2022-12-05T09:54:30.836Z,5.00
2022-12-05T09:56:58.810Z,5.00
2022-12-05T09:59:25.626Z,5.00
2022-12-05T10:01:58.328Z,5.00
2022-12-05T10:04:31.695Z,5.10
2022-12-05T10:07:01.764Z,5.10
2022-12-05T10:09:40.871Z,5.20
2022-12-05T10:12:16.278Z,5.20
2022-12-05T10:14:56.095Z,5.20
2022-12-05T10:17:37.116Z,5.20
2022-12-05T10:20:19.010Z,5.30
2022-12-05T10:22:47.956Z,5.30
2022-12-05T10:25:17.204Z,5.30
2022-12-05T10:27:47.937Z,5.40
2022-12-05T10:30:15.951Z,5.40
2022-12-05T10:32:42.442Z,5.40
2022-12-05T10:35:21.305Z,5.40
2022-12-05T10:37:49.653Z,5.50
2022-12-05T10:40:16.605Z,5.50
2022-12-05T10:42:43.722Z,5.50
2022-12-05T10:45:19.029Z,5.60
2022-12-05T10:47:45.936Z,5.60
2022-12-05T10:50:31.540Z,5.60
2022-12-05T10:53:00.611Z,5.60
2022-12-05T10:55:39.774Z,5.60
2022-12-05T10:58:17.774Z,5.60
2022-12-05T11:00:46.690Z,5.60
2022-12-05T11:03:25.907Z,5.60
2022-12-05T11:05:53.736Z,5.60
2022-12-05T11:08:48.191Z,5.50
2022-12-05T11:11:14.663Z,5.40
2022-12-05T11:13:51.474Z,5.40
2022-12-05T11:16:33.004Z,5.50
2022-12-05T11:19:19.696Z,5.40
2022-12-05T11:21:46.304Z,5.40
2022-12-05T11:24:21.523Z,5.30
2022-12-05T11:26:48.129Z,5.30
2022-12-05T11:29:31.659Z,5.30
2022-12-05T11:31:58.344Z,5.30
2022-12-05T11:34:31.454Z,5.30
2022-12-05T11:37:00.006Z,5.20
2022-12-05T11:39:26.583Z,5.20
2022-12-05T11:42:00.212Z,5.10
2022-12-05T11:44:26.722Z,5.10
2022-12-05T11:46:56.142Z,5.10
2022-12-05T11:49:23.121Z,5.10
2022-12-05T11:51:52.511Z,5.10
2022-12-05T11:55:02.877Z,5.00
2022-12-05T11:57:25.984Z,5.10
2022-12-05T12:00:04.513Z,5.10
2022-12-05T12:02:54.776Z,5.10
2022-12-05T12:05:31.761Z,5.10
2022-12-05T12:08:07.456Z,5.10
2022-12-05T12:10:36.999Z,5.10
2022-12-05T12:13:18.023Z,5.10
2022-12-05T12:16:08.200Z,5.10
2022-12-05T12:18:43.256Z,5.10
2022-12-05T12:21:42.088Z,5.20
2022-12-05T12:24:17.067Z,5.20
2022-12-05T12:27:01.529Z,5.20
2022-12-05T12:29:37.015Z,5.20
2022-12-05T12:32:09.538Z,5.10
2022-12-05T12:34:45.396Z,5.10
2022-12-05T12:37:32.301Z,5.10
2022-12-05T12:40:18.692Z,5.20
2022-12-05T12:42:52.140Z,5.20
2022-12-05T12:45:37.345Z,5.30
2022-12-05T12:48:19.981Z,5.30
2022-12-05T12:50:51.124Z,5.30
2022-12-05T12:53:36.795Z,5.30
2022-12-05T12:56:16.753Z,5.30
2022-12-05T12:59:03.047Z,5.30
2022-12-05T13:01:45.530Z,5.30
2022-12-05T13:04:14.773Z,5.30
2022-12-05T13:06:44.863Z,5.40
2022-12-05T13:09:34.757Z,5.30
2022-12-05T13:12:05.186Z,5.30
2022-12-05T13:14:33.865Z,5.30
2022-12-05T13:17:01.587Z,5.30
2022-12-05T13:19:30.132Z,5.30
2022-12-05T13:21:57.811Z,5.30
2022-12-05T13:24:26.483Z,5.30
2022-12-05T13:26:53.321Z,5.30
2022-12-05T13:29:22.662Z,5.30
2022-12-05T13:31:49.308Z,5.20
2022-12-05T13:34:35.284Z,5.30
2022-12-05T13:37:29.076Z,5.20
2022-12-05T13:40:15.631Z,5.30
2022-12-05T13:42:43.049Z,5.20
2022-12-05T13:45:11.759Z,5.20
2022-12-05T13:47:54.130Z,5.20
2022-12-05T13:50:26.707Z,5.30
2022-12-05T13:53:17.534Z,5.30
2022-12-05T13:56:01.180Z,5.40
2022-12-05T13:58:30.538Z,5.30
2022-12-05T14:01:16.055Z,5.30
2022-12-05T14:03:48.765Z,5.30
2022-12-05T14:06:40.915Z,5.30
2022-12-05T14:09:20.124Z,5.30
2022-12-05T14:12:05.669Z,5.30
2022-12-05T14:14:50.974Z,5.20
2022-12-05T14:17:17.641Z,5.20
2022-12-05T14:19:53.153Z,5.10
2022-12-05T14:22:26.978Z,5.10
2022-12-05T14:25:06.238Z,5.10
2022-12-05T14:27:46.838Z,5.10
2022-12-05T14:30:19.487Z,5.10
2022-12-05T14:32:46.419Z,5.00
2022-12-05T14:35:18.294Z,5.00
2022-12-05T14:37:52.502Z,5.00
2022-12-05T14:40:28.195Z,5.00
2022-12-05T14:43:00.947Z,5.10
2022-12-05T14:45:33.113Z,5.00
2022-12-05T14:48:03.274Z,5.00
2022-12-05T14:50:35.955Z,5.00
2022-12-05T14:53:15.813Z,5.00
2022-12-05T14:55:43.395Z,5.00
2022-12-05T14:58:30.215Z,4.90
2022-12-05T15:00:58.360Z,5.00
2022-12-05T15:03:37.172Z,4.90
2022-12-05T15:06:05.608Z,4.90
2022-12-05T15:08:35.663Z,4.90
2022-12-05T15:11:02.632Z,4.90
2022-12-05T15:13:29.534Z,5.00
2022-12-05T15:16:03.882Z,4.90
2022-12-05T15:18:36.670Z,4.90
2022-12-05T15:21:13.360Z,4.80
2022-12-05T15:23:47.487Z,4.80
2022-12-05T15:26:45.978Z,4.80
2022-12-05T15:29:23.593Z,4.80
2022-12-05T15:31:51.479Z,4.80
2022-12-05T15:34:17.982Z,4.80
2022-12-05T15:37:04.907Z,4.80
2022-12-05T15:39:49.353Z,4.80
2022-12-05T15:42:16.183Z,4.80
2022-12-05T15:44:42.782Z,4.80
2022-12-05T15:47:18.928Z,4.80
2022-12-05T15:49:46.318Z,4.80
2022-12-05T15:52:25.081Z,4.80
2022-12-05T15:54:52.387Z,4.80
2022-12-05T15:57:25.578Z,4.80
2022-12-05T15:59:55.974Z,4.80
2022-12-05T16:02:25.572Z,4.80
2022-12-05T16:04:53.682Z,4.80
2022-12-05T16:07:20.984Z,4.80
2022-12-05T16:09:47.605Z,4.80
2022-12-05T16:12:26.357Z,4.80
2022-12-05T16:15:00.023Z,4.80
2022-12-05T16:17:29.016Z,4.80
2022-12-05T16:20:09.775Z,4.70
2022-12-05T16:22:36.451Z,4.80
2022-12-05T16:25:12.554Z,4.80
2022-12-05T16:27:39.546Z,4.80
2022-12-05T16:30:08.964Z,4.80
2022-12-05T16:32:35.739Z,4.70
2022-12-05T16:35:02.603Z,4.80
2022-12-05T16:37:29.742Z,4.80
2022-12-05T16:39:56.947Z,4.80
2022-12-05T16:42:28.000Z,4.80
2022-12-05T16:45:02.960Z,4.80
2022-12-05T16:47:41.750Z,4.80
2022-12-05T16:50:23.233Z,4.80
2022-12-05T16:52:50.405Z,4.80
2022-12-05T16:55:17.364Z,4.90
2022-12-05T16:57:43.943Z,4.80
2022-12-05T17:00:14.450Z,4.80
2022-12-05T17:02:41.049Z,4.80
2022-12-05T17:05:13.559Z,4.70
2022-12-05T17:07:40.187Z,4.70
2022-12-05T17:10:07.237Z,4.60
2022-12-05T17:12:34.316Z,4.60
2022-12-05T17:15:01.177Z,4.60
2022-12-05T17:17:28.034Z,4.50
2022-12-05T17:19:54.545Z,4.50
2022-12-05T17:22:21.178Z,4.50
2022-12-05T17:24:47.704Z,4.40
2022-12-05T17:27:14.410Z,4.40
2022-12-05T17:29:40.925Z,4.40
2022-12-05T17:32:07.668Z,4.30
2022-12-05T17:34:34.299Z,4.30
2022-12-05T17:37:00.960Z,4.30
2022-12-05T17:39:28.883Z,4.20
2022-12-05T17:41:55.894Z,4.20
2022-12-05T17:44:22.537Z,4.20
2022-12-05T17:46:49.316Z,4.20
2022-12-05T17:49:17.755Z,4.10
2022-12-05T17:52:13.547Z,4.10
2022-12-05T17:54:31.477Z,4.10
2022-12-05T17:56:57.990Z,4.10
2022-12-05T17:59:24.582Z,4.10
2022-12-05T18:01:51.122Z,4.20
2022-12-05T18:04:22.690Z,4.10
2022-12-05T18:06:49.992Z,4.10
2022-12-05T18:09:16.623Z,4.10
2022-12-05T18:11:43.172Z,4.10
2022-12-05T18:14:10.335Z,4.00
2022-12-05T18:16:36.962Z,4.00
2022-12-05T18:19:03.894Z,4.00
2022-12-05T18:21:30.553Z,3.90
2022-12-05T18:23:57.178Z,3.90
2022-12-05T18:26:23.822Z,3.90
2022-12-05T18:28:51.581Z,3.90
2022-12-05T18:31:18.287Z,3.90
2022-12-05T18:33:45.568Z,3.90
2022-12-05T18:36:15.436Z,3.90
2022-12-05T18:38:43.281Z,3.90
2022-12-05T18:41:10.396Z,3.90
2022-12-05T18:43:37.047Z,3.90
2022-12-05T18:46:04.417Z,3.90
2022-12-05T18:48:39.258Z,3.90
2022-12-05T18:51:15.592Z,4.00
2022-12-05T18:53:42.542Z,4.00
2022-12-05T18:56:22.208Z,4.00
2022-12-05T18:58:53.228Z,4.10
2022-12-05T19:01:21.121Z,4.00
2022-12-05T19:03:47.848Z,4.10
2022-12-05T19:06:16.222Z,4.10
2022-12-05T19:08:44.449Z,4.00
2022-12-05T19:11:14.647Z,4.00
2022-12-05T19:13:41.257Z,4.00
2022-12-05T19:16:09.103Z,4.10
2022-12-05T19:18:36.603Z,4.00
2022-12-05T19:21:03.511Z,4.00
2022-12-05T19:23:31.949Z,4.00
2022-12-05T19:26:02.435Z,4.00
2022-12-05T19:28:29.070Z,4.00
2022-12-05T19:31:02.627Z,4.00
2022-12-05T19:33:36.602Z,4.00
2022-12-05T19:36:08.441Z,4.00
2022-12-05T19:38:35.334Z,4.00
2022-12-05T19:41:02.379Z,4.00
2022-12-05T19:43:30.360Z,4.10
2022-12-05T19:45:59.173Z,4.10
2022-12-05T19:48:25.935Z,4.10
2022-12-05T19:50:56.322Z,4.10
2022-12-05T19:53:23.506Z,4.10
2022-12-05T19:55:50.271Z,4.20
2022-12-05T19:58:16.885Z,4.10
2022-12-05T20:00:44.380Z,4.10
2022-12-05T20:03:12.408Z,4.10
2022-12-05T20:05:39.146Z,4.10
2022-12-05T20:08:05.988Z,4.10
2022-12-05T20:10:33.869Z,4.20
2022-12-05T20:13:02.703Z,4.20
2022-12-05T20:15:32.906Z,4.20
2022-12-05T20:17:59.441Z,4.20
2022-12-05T20:20:25.994Z,4.20
2022-12-05T20:22:53.250Z,4.20
2022-12-05T20:25:19.771Z,4.20
2022-12-05T20:27:46.690Z,4.20
2022-12-05T20:30:13.328Z,4.10
2022-12-05T20:32:39.980Z,4.20
2022-12-05T20:35:07.662Z,4.10
2022-12-05T20:37:35.743Z,4.20
2022-12-05T20:40:02.589Z,4.20
2022-12-05T20:42:29.255Z,4.10
2022-12-05T20:44:55.890Z,4.20
2022-12-05T20:47:22.540Z,4.10
2022-12-05T20:49:49.129Z,4.20
2022-12-05T20:52:15.663Z,4.20
2022-12-05T20:54:42.193Z,4.20
2022-12-05T20:57:08.726Z,4.10
2022-12-05T20:59:35.261Z,4.10
2022-12-05T21:02:02.016Z,4.10
2022-12-05T21:04:28.763Z,4.00
2022-12-05T21:06:56.185Z,4.00
2022-12-05T21:09:30.221Z,4.00
2022-12-05T21:11:56.771Z,4.00
2022-12-05T21:14:23.939Z,4.10
2022-12-05T21:16:52.660Z,4.10
2022-12-05T21:19:20.203Z,4.10
2022-12-05T21:21:46.837Z,4.10
2022-12-05T21:24:13.535Z,4.20
2022-12-05T21:26:40.104Z,4.20
2022-12-05T21:29:07.297Z,4.20
2022-12-05T21:31:38.730Z,4.20
2022-12-05T21:34:06.641Z,4.10
2022-12-05T21:36:33.883Z,4.20
2022-12-05T21:39:00.567Z,4.20
2022-12-05T21:41:27.240Z,4.10
2022-12-05T21:43:55.821Z,4.20
2022-12-05T21:46:23.328Z,4.10
2022-12-05T21:48:50.038Z,4.20
2022-12-05T21:51:16.678Z,4.20
2022-12-05T21:53:46.117Z,4.20
2022-12-05T21:56:16.720Z,4.10
2022-12-05T21:58:44.217Z,4.20
2022-12-05T22:01:12.136Z,4.20
2022-12-05T22:03:38.866Z,4.20
2022-12-05T22:06:07.308Z,4.10
2022-12-05T22:08:34.470Z,4.20
2022-12-05T22:11:05.226Z,4.20
2022-12-05T22:13:32.517Z,4.20
2022-12-05T22:15:59.455Z,4.20
2022-12-05T22:18:26.373Z,4.20
2022-12-05T22:20:59.345Z,4.20
2022-12-05T22:23:26.318Z,4.10
2022-12-05T22:26:19.187Z,4.10
2022-12-05T22:28:46.063Z,4.10
2022-12-05T22:31:13.727Z,4.00
2022-12-05T22:33:40.486Z,4.00
2022-12-05T22:36:08.162Z,4.00
2022-12-05T22:38:35.723Z,4.00
2022-12-05T22:41:07.958Z,4.00
2022-12-05T22:43:35.719Z,4.00
2022-12-05T22:46:06.281Z,4.00
2022-12-05T22:48:33.053Z,4.00
2022-12-05T22:51:01.586Z,4.00
2022-12-05T22:53:28.769Z,4.00
2022-12-05T22:56:00.612Z,4.00
2022-12-05T22:58:27.128Z,4.10
2022-12-05T23:00:54.120Z,4.00
2022-12-05T23:03:20.985Z,4.00
2022-12-05T23:05:47.701Z,4.10
2022-12-05T23:08:14.282Z,4.10
2022-12-05T23:10:40.997Z,4.10
2022-12-05T23:13:07.722Z,4.10
2022-12-05T23:15:34.698Z,4.10
2022-12-05T23:18:01.235Z,4.10
2022-12-05T23:20:28.034Z,4.10
2022-12-05T23:22:54.727Z,4.10
2022-12-05T23:25:21.315Z,4.00
2022-12-05T23:27:47.871Z,4.10
2022-12-05T23:30:14.546Z,4.10
2022-12-05T23:32:41.449Z,4.00
2022-12-05T23:35:09.217Z,4.00
2022-12-05T23:37:35.770Z,4.00
2022-12-05T23:40:02.418Z,4.00
2022-12-05T23:42:29.136Z,4.00
2022-12-05T23:44:55.692Z,4.00
2022-12-05T23:47:22.322Z,4.00
2022-12-05T23:49:48.848Z,4.10
2022-12-05T23:52:15.493Z,4.10
2022-12-05T23:54:45.166Z,4.00
2022-12-05T23:57:17.240Z,4.00
2022-12-05T23:59:44.616Z,4.00
